Ross, Texas
Current Conditions -  °F | °C
As of 6:50 PM on Monday 20 Oct 2014 (Local Time) from KCNW Reporting Station
Clear Clear  
Wind Chill: 73°   Ceiling: Unl
Heat Index: 73°   Visibility: 10mi
Dew Point: 61°   Wind: 0mph
Humidity: 65%   Direction: NA
Pressure: 30.01"   Gusts: NA
Location:  31.72°N, 97.12°W
Report Text: KCNW 202350Z 00000KT 10SM SKC 23/16 A3001
Loading
Personal Weather Stations






























Interactive Weather Map New forecast layout! Learn more

10-Day Weather Forecast

Advertisements
Track Severe Weather on mobile